createdAt,value
2023-05-10T00:02:20.543Z,12.25
2023-05-10T00:05:23.511Z,12.24
2023-05-10T00:08:26.223Z,12.24
2023-05-10T00:11:29.042Z,12.25
2023-05-10T00:14:31.621Z,12.24
2023-05-10T00:17:34.502Z,12.21
2023-05-10T00:20:37.040Z,12.15
2023-05-10T00:23:39.998Z,12.18
2023-05-10T00:26:43.363Z,12.02
2023-05-10T00:29:46.516Z,12.02
2023-05-10T00:32:50.763Z,11.90
2023-05-10T00:35:53.770Z,11.79
2023-05-10T00:38:56.348Z,11.76
2023-05-10T00:42:00.629Z,11.64
2023-05-10T00:45:03.798Z,11.54
2023-05-10T00:48:06.914Z,11.51
2023-05-10T00:51:09.991Z,11.55
2023-05-10T00:54:15.966Z,11.45
2023-05-10T00:57:18.568Z,11.53
2023-05-10T01:00:21.660Z,11.33
2023-05-10T01:03:24.527Z,11.22
2023-05-10T01:06:27.713Z,11.20
2023-05-10T01:09:30.448Z,11.31
2023-05-10T01:12:37.920Z,11.17
2023-05-10T01:15:41.142Z,11.02
2023-05-10T01:18:46.199Z,11.00
2023-05-10T01:22:03.162Z,10.93
2023-05-10T01:25:14.848Z,10.87
2023-05-10T01:28:29.571Z,10.81
2023-05-10T01:31:32.558Z,10.80
2023-05-10T01:35:00.136Z,10.88
2023-05-10T01:38:38.375Z,10.87
2023-05-10T01:41:52.504Z,11.04
2023-05-10T01:45:17.513Z,11.07
2023-05-10T01:48:22.067Z,11.07
2023-05-10T01:51:27.037Z,11.12
2023-05-10T01:54:30.179Z,11.15
2023-05-10T01:57:40.580Z,11.25
2023-05-10T02:00:48.288Z,11.28
2023-05-10T02:03:52.415Z,11.21
2023-05-10T02:06:56.273Z,11.22
2023-05-10T02:10:00.222Z,11.24
2023-05-10T02:13:04.432Z,11.27
2023-05-10T02:16:08.472Z,11.31
2023-05-10T02:19:12.935Z,11.30
2023-05-10T02:22:17.623Z,11.38
2023-05-10T02:25:22.445Z,11.43
2023-05-10T02:28:27.563Z,11.47
2023-05-10T02:31:34.199Z,11.50
2023-05-10T02:34:37.314Z,11.59
2023-05-10T02:37:41.199Z,11.66
2023-05-10T02:40:45.261Z,11.72
2023-05-10T02:43:50.549Z,11.79
2023-05-10T02:46:53.569Z,11.82
2023-05-10T02:49:56.531Z,11.88
2023-05-10T02:53:05.044Z,11.95
2023-05-10T02:56:15.731Z,11.99
2023-05-10T02:59:18.419Z,12.12
2023-05-10T03:02:22.084Z,12.00
2023-05-10T03:05:24.877Z,12.10
2023-05-10T03:08:30.334Z,12.04
2023-05-10T03:11:33.928Z,12.05
2023-05-10T03:15:07.244Z,12.01
2023-05-10T03:18:16.308Z,11.93
2023-05-10T03:21:20.588Z,11.84
2023-05-10T03:24:28.401Z,11.76
2023-05-10T03:27:33.277Z,11.84
2023-05-10T03:30:37.630Z,11.67
2023-05-10T03:33:48.708Z,11.55
2023-05-10T03:36:52.161Z,11.57
2023-05-10T03:39:55.572Z,11.48
2023-05-10T03:42:59.726Z,11.37
2023-05-10T03:46:04.452Z,11.40
2023-05-10T03:49:07.093Z,11.46
2023-05-10T03:52:09.959Z,11.54
2023-05-10T03:55:12.809Z,11.55
2023-05-10T03:58:16.307Z,11.49
2023-05-10T04:01:19.405Z,11.54
2023-05-10T04:04:24.194Z,11.55
2023-05-10T04:07:26.856Z,11.76
2023-05-10T04:10:29.844Z,11.73
2023-05-10T04:13:32.523Z,11.67
2023-05-10T04:16:35.458Z,11.78
2023-05-10T04:19:38.072Z,11.80
2023-05-10T04:22:40.974Z,11.88
2023-05-10T04:25:43.899Z,11.88
2023-05-10T04:28:46.799Z,11.90
2023-05-10T04:31:49.959Z,11.97
2023-05-10T04:34:52.988Z,11.94
2023-05-10T04:37:55.707Z,11.94
2023-05-10T04:41:06.304Z,11.90
2023-05-10T04:44:08.869Z,11.91
2023-05-10T04:47:12.918Z,11.82
2023-05-10T04:50:15.869Z,11.75
2023-05-10T04:53:18.830Z,11.83
2023-05-10T04:56:22.941Z,11.77
2023-05-10T04:59:25.744Z,11.99
2023-05-10T05:02:28.333Z,12.22
2023-05-10T05:05:31.210Z,12.47
2023-05-10T05:08:34.577Z,12.43
2023-05-10T05:11:37.556Z,12.54
2023-05-10T05:14:40.509Z,12.76
2023-05-10T05:17:44.407Z,12.84
2023-05-10T05:20:47.367Z,12.94
2023-05-10T05:23:50.207Z,13.09
2023-05-10T05:26:52.811Z,13.06
2023-05-10T05:29:59.170Z,12.87
2023-05-10T05:33:01.867Z,12.77
2023-05-10T05:36:06.386Z,12.88
2023-05-10T05:39:08.893Z,13.00
2023-05-10T05:42:12.612Z,13.25
2023-05-10T05:45:15.547Z,13.46
2023-05-10T05:48:18.686Z,13.68
2023-05-10T05:51:21.432Z,14.05
2023-05-10T05:54:24.252Z,14.42
2023-05-10T05:57:27.673Z,14.27
2023-05-10T06:00:30.669Z,14.52
2023-05-10T06:03:33.778Z,14.45
2023-05-10T06:06:36.406Z,14.19
2023-05-10T06:09:39.423Z,14.10
2023-05-10T06:12:42.202Z,14.36
2023-05-10T06:15:45.158Z,14.61
2023-05-10T06:18:47.726Z,14.56
2023-05-10T06:21:53.080Z,14.70
2023-05-10T06:24:56.417Z,14.62
2023-05-10T06:27:59.419Z,14.52
2023-05-10T06:31:02.491Z,14.47
2023-05-10T06:34:05.407Z,14.71
2023-05-10T06:37:07.955Z,14.94
2023-05-10T06:40:11.182Z,15.22
2023-05-10T06:43:13.753Z,15.08
2023-05-10T06:46:16.727Z,14.97
2023-05-10T06:49:19.386Z,15.21
2023-05-10T06:52:22.271Z,15.52
2023-05-10T06:55:44.894Z,15.75
2023-05-10T06:58:48.679Z,15.71
2023-05-10T07:01:51.476Z,15.58
2023-05-10T07:04:55.139Z,16.05
2023-05-10T07:07:58.509Z,15.83
2023-05-10T07:11:06.307Z,15.92
2023-05-10T07:14:08.900Z,15.90
2023-05-10T07:17:11.787Z,15.56
2023-05-10T07:20:14.498Z,16.01
2023-05-10T07:23:18.814Z,15.91
2023-05-10T07:26:21.976Z,15.76
2023-05-10T07:29:24.962Z,15.72
2023-05-10T07:32:27.602Z,15.77
2023-05-10T07:35:30.483Z,15.93
2023-05-10T07:38:33.018Z,16.31
2023-05-10T07:41:36.237Z,16.38
2023-05-10T07:44:38.881Z,16.32
2023-05-10T07:47:41.932Z,16.81
2023-05-10T07:50:44.630Z,17.13
2023-05-10T07:53:47.739Z,16.76
2023-05-10T07:56:51.998Z,17.63
2023-05-10T07:59:54.881Z,18.19
2023-05-10T08:02:57.562Z,18.07
2023-05-10T08:06:00.713Z,17.40
2023-05-10T08:09:03.430Z,17.39
2023-05-10T08:12:06.691Z,17.43
2023-05-10T08:15:09.853Z,17.61
2023-05-10T08:18:12.805Z,17.83
2023-05-10T08:21:16.606Z,17.88
2023-05-10T08:24:19.490Z,17.68
2023-05-10T08:27:22.197Z,17.13
2023-05-10T08:30:25.038Z,17.14
2023-05-10T08:33:27.670Z,17.68
2023-05-10T08:36:30.970Z,17.80
2023-05-10T08:39:36.746Z,18.12
2023-05-10T08:42:43.508Z,17.93
2023-05-10T08:45:49.164Z,17.78
2023-05-10T08:48:53.138Z,18.01
2023-05-10T08:51:56.913Z,18.25
2023-05-10T08:55:00.040Z,18.29
2023-05-10T08:58:02.826Z,18.65
2023-05-10T09:01:07.153Z,18.62
2023-05-10T09:04:10.473Z,18.13
2023-05-10T09:07:13.974Z,18.20
2023-05-10T09:10:17.356Z,17.93
2023-05-10T09:13:22.685Z,18.51
2023-05-10T09:16:25.506Z,18.70
2023-05-10T09:19:29.440Z,18.83
2023-05-10T09:22:33.231Z,18.72
2023-05-10T09:25:38.217Z,18.99
2023-05-10T09:28:55.492Z,18.54
2023-05-10T09:31:58.910Z,19.29
2023-05-10T09:35:07.842Z,19.71
2023-05-10T09:38:11.468Z,19.41
2023-05-10T09:41:21.719Z,19.21
2023-05-10T09:44:27.212Z,19.30
2023-05-10T09:47:30.460Z,19.46
2023-05-10T09:50:35.142Z,19.88
2023-05-10T09:53:38.070Z,19.73
2023-05-10T09:56:41.667Z,19.69
2023-05-10T09:59:44.740Z,20.15
2023-05-10T10:02:55.287Z,20.57
2023-05-10T10:05:58.540Z,20.75
2023-05-10T10:09:01.358Z,20.48
2023-05-10T10:12:05.573Z,20.09
2023-05-10T10:15:09.714Z,19.74
2023-05-10T10:18:16.584Z,20.09
2023-05-10T10:21:20.068Z,19.91
2023-05-10T10:24:23.071Z,20.43
2023-05-10T10:27:49.794Z,21.00
2023-05-10T10:30:56.393Z,21.40
2023-05-10T10:34:08.372Z,21.27
2023-05-10T10:37:11.351Z,20.80
2023-05-10T10:40:28.253Z,20.83
2023-05-10T10:43:31.354Z,20.49
2023-05-10T10:46:35.572Z,20.36
2023-05-10T10:49:58.787Z,20.43
2023-05-10T10:53:12.123Z,21.05
2023-05-10T10:56:16.314Z,21.22
2023-05-10T10:59:29.076Z,21.08
2023-05-10T11:02:46.954Z,21.59
2023-05-10T11:05:52.141Z,21.93
2023-05-10T11:08:55.764Z,22.58
2023-05-10T11:12:00.767Z,22.65
2023-05-10T11:15:04.001Z,22.05
2023-05-10T11:18:20.671Z,21.69
2023-05-10T11:21:23.828Z,21.11
2023-05-10T11:24:28.942Z,20.78
2023-05-10T11:27:34.091Z,20.97
2023-05-10T11:30:39.460Z,21.13
2023-05-10T11:33:52.692Z,22.03
2023-05-10T11:36:56.624Z,21.53
2023-05-10T11:39:59.522Z,21.20
2023-05-10T11:43:02.395Z,21.00
2023-05-10T11:46:10.747Z,20.77
2023-05-10T11:49:14.397Z,20.87
2023-05-10T11:52:19.872Z,20.62
2023-05-10T11:55:23.316Z,20.28
2023-05-10T11:58:26.221Z,20.32
2023-05-10T12:01:29.944Z,20.45
2023-05-10T12:04:33.232Z,20.28
2023-05-10T12:07:36.080Z,20.19
2023-05-10T12:10:38.936Z,20.08
2023-05-10T12:13:47.513Z,20.17
2023-05-10T12:16:50.570Z,20.15
2023-05-10T12:19:53.591Z,20.27
2023-05-10T12:23:00.596Z,20.70
2023-05-10T12:26:07.372Z,21.09
2023-05-10T12:29:18.389Z,21.27
2023-05-10T12:32:21.254Z,21.05
2023-05-10T12:35:25.154Z,21.23
2023-05-10T12:38:27.972Z,21.59
2023-05-10T12:41:30.757Z,21.71
2023-05-10T12:44:33.490Z,21.89
2023-05-10T12:47:37.006Z,22.26
2023-05-10T12:50:39.665Z,22.52
2023-05-10T12:53:45.073Z,22.57
2023-05-10T12:56:48.770Z,22.48
2023-05-10T12:59:51.650Z,22.02
2023-05-10T13:02:54.414Z,21.56
2023-05-10T13:05:57.413Z,21.39
2023-05-10T13:08:59.951Z,21.45
2023-05-10T13:12:03.447Z,21.52
2023-05-10T13:15:06.654Z,21.80
2023-05-10T13:18:09.584Z,22.02
2023-05-10T13:21:12.343Z,22.34
2023-05-10T13:24:15.352Z,22.18
2023-05-10T13:27:17.936Z,22.02
2023-05-10T13:30:21.537Z,21.86
2023-05-10T13:33:24.293Z,21.88
2023-05-10T13:36:27.401Z,22.24
2023-05-10T13:39:34.269Z,22.47
2023-05-10T13:42:37.189Z,22.42
2023-05-10T13:45:40.047Z,22.40
2023-05-10T13:48:42.964Z,22.44
2023-05-10T13:51:45.682Z,21.98
2023-05-10T13:54:48.548Z,21.76
2023-05-10T13:57:51.222Z,22.06
2023-05-10T14:00:54.168Z,22.20
2023-05-10T14:03:57.097Z,22.22
2023-05-10T14:06:59.700Z,22.41
2023-05-10T14:10:05.536Z,22.96
2023-05-10T14:13:08.907Z,23.70
2023-05-10T14:16:12.543Z,23.91
2023-05-10T14:19:15.174Z,24.04
2023-05-10T14:22:18.106Z,24.28
2023-05-10T14:25:20.750Z,24.60
2023-05-10T14:28:24.661Z,24.57
2023-05-10T14:31:27.340Z,24.21
2023-05-10T14:34:30.342Z,24.29
2023-05-10T14:37:33.480Z,24.77
2023-05-10T14:40:36.833Z,24.85
2023-05-10T14:43:39.413Z,24.23
2023-05-10T14:46:42.865Z,24.21
2023-05-10T14:49:45.510Z,23.69
2023-05-10T14:52:48.706Z,24.27
2023-05-10T14:55:51.176Z,24.77
2023-05-10T14:58:54.701Z,25.14
2023-05-10T15:01:57.721Z,24.37
2023-05-10T15:05:01.343Z,22.98
2023-05-10T15:08:05.822Z,22.02
2023-05-10T15:11:08.843Z,21.22
2023-05-10T15:14:11.494Z,20.85
2023-05-10T15:17:14.288Z,20.41
2023-05-10T15:20:16.957Z,20.28
2023-05-10T15:23:19.830Z,20.27
2023-05-10T15:26:23.166Z,20.25
2023-05-10T15:29:26.234Z,20.13
2023-05-10T15:32:30.235Z,19.90
2023-05-10T15:35:33.352Z,19.71
2023-05-10T15:38:37.752Z,19.91
2023-05-10T15:41:40.631Z,19.98
2023-05-10T15:44:44.942Z,20.11
2023-05-10T15:47:47.858Z,20.22
2023-05-10T15:50:50.430Z,21.51
2023-05-10T15:54:05.817Z,23.04
2023-05-10T15:57:09.992Z,22.48
2023-05-10T16:00:13.660Z,21.99
2023-05-10T16:03:16.440Z,22.63
2023-05-10T16:06:19.326Z,22.26
2023-05-10T16:09:22.202Z,21.90
2023-05-10T16:12:25.286Z,22.71
2023-05-10T16:15:27.876Z,22.90
2023-05-10T16:18:31.044Z,22.02
2023-05-10T16:21:33.822Z,21.46
2023-05-10T16:24:36.678Z,21.03
2023-05-10T16:27:39.220Z,20.88
2023-05-10T16:30:42.336Z,20.62
2023-05-10T16:33:45.083Z,20.65
2023-05-10T16:36:48.017Z,20.38
2023-05-10T16:39:50.537Z,20.14
2023-05-10T16:42:53.339Z,19.98
2023-05-10T16:45:56.390Z,19.74
2023-05-10T16:49:00.256Z,19.67
2023-05-10T16:52:03.288Z,19.53
2023-05-10T16:55:06.581Z,19.39
2023-05-10T16:58:09.333Z,19.22
2023-05-10T17:01:12.419Z,19.08
2023-05-10T17:04:15.047Z,18.86
2023-05-10T17:07:19.060Z,18.82
2023-05-10T17:10:21.827Z,18.65
2023-05-10T17:13:24.659Z,18.55
2023-05-10T17:16:27.365Z,18.47
2023-05-10T17:19:30.753Z,18.40
2023-05-10T17:22:33.342Z,18.34
2023-05-10T17:25:36.838Z,18.22
2023-05-10T17:28:39.485Z,18.11
2023-05-10T17:31:42.771Z,18.03
2023-05-10T17:34:45.352Z,18.04
2023-05-10T17:37:48.312Z,18.00
2023-05-10T17:40:51.494Z,17.85
2023-05-10T17:43:54.805Z,17.69
2023-05-10T17:46:57.330Z,17.61
2023-05-10T17:50:00.371Z,17.58
2023-05-10T17:53:03.165Z,17.45
2023-05-10T17:56:06.753Z,17.29
2023-05-10T17:59:09.354Z,17.22
2023-05-10T18:02:13.228Z,17.04
2023-05-10T18:05:16.368Z,16.96
2023-05-10T18:08:22.845Z,16.84
2023-05-10T18:11:26.354Z,16.58
2023-05-10T18:14:40.079Z,16.44
2023-05-10T18:17:44.048Z,16.40
2023-05-10T18:20:46.895Z,16.28
2023-05-10T18:23:49.946Z,16.23
2023-05-10T18:26:52.665Z,16.14
2023-05-10T18:29:58.687Z,16.13
2023-05-10T18:33:01.620Z,16.02
2023-05-10T18:36:05.256Z,16.02
2023-05-10T18:39:08.421Z,15.98
2023-05-10T18:42:11.683Z,15.92
2023-05-10T18:45:15.359Z,15.86
2023-05-10T18:48:18.892Z,15.90
2023-05-10T18:51:22.738Z,15.77
2023-05-10T18:54:26.740Z,15.67
2023-05-10T18:57:29.787Z,15.61
2023-05-10T19:00:33.446Z,15.62
2023-05-10T19:03:36.835Z,15.60
2023-05-10T19:06:42.003Z,15.60
2023-05-10T19:09:44.954Z,15.60
2023-05-10T19:12:48.168Z,15.56
2023-05-10T19:16:08.522Z,15.53
2023-05-10T19:19:14.245Z,15.51
2023-05-10T19:22:21.371Z,15.47
2023-05-10T19:25:29.749Z,15.43
2023-05-10T19:28:32.798Z,15.48
2023-05-10T19:31:36.187Z,15.39
2023-05-10T19:34:39.157Z,15.33
2023-05-10T19:37:46.118Z,15.29
2023-05-10T19:40:50.661Z,15.17
2023-05-10T19:43:54.032Z,15.08
2023-05-10T19:46:57.213Z,15.01
2023-05-10T19:50:00.702Z,14.91
2023-05-10T19:53:04.187Z,14.82
2023-05-10T19:56:07.564Z,14.78
2023-05-10T19:59:10.528Z,14.78
2023-05-10T20:02:14.926Z,14.75
2023-05-10T20:05:18.240Z,14.72
2023-05-10T20:08:22.434Z,14.68
2023-05-10T20:11:25.631Z,14.66
2023-05-10T20:14:28.353Z,14.58
2023-05-10T20:17:31.501Z,14.57
2023-05-10T20:20:34.429Z,14.60
2023-05-10T20:23:37.898Z,14.55
2023-05-10T20:26:41.048Z,14.65
2023-05-10T20:29:44.205Z,14.62
2023-05-10T20:32:47.333Z,14.62
2023-05-10T20:35:51.362Z,14.61
2023-05-10T20:38:54.316Z,14.59
2023-05-10T20:41:57.434Z,14.55
2023-05-10T20:45:00.383Z,14.53
2023-05-10T20:48:04.213Z,14.47
2023-05-10T20:51:07.027Z,14.45
2023-05-10T20:54:09.909Z,14.47
2023-05-10T20:57:15.554Z,14.46
2023-05-10T21:00:18.804Z,14.45
2023-05-10T21:03:21.641Z,14.44
2023-05-10T21:06:24.724Z,14.43
2023-05-10T21:09:27.271Z,14.42
2023-05-10T21:12:30.132Z,14.43
2023-05-10T21:15:32.747Z,14.39
2023-05-10T21:18:36.067Z,14.37
2023-05-10T21:21:38.744Z,14.36
2023-05-10T21:24:41.713Z,14.29
2023-05-10T21:27:44.378Z,14.30
2023-05-10T21:30:47.894Z,14.24
2023-05-10T21:33:50.588Z,14.23
2023-05-10T21:36:54.647Z,14.23
2023-05-10T21:39:57.238Z,14.20
2023-05-10T21:43:00.136Z,14.19
2023-05-10T21:46:02.952Z,14.30
2023-05-10T21:49:05.935Z,14.28
2023-05-10T21:52:08.513Z,14.25
2023-05-10T21:55:11.461Z,14.18
2023-05-10T21:58:14.117Z,14.14
2023-05-10T22:01:18.062Z,14.16
2023-05-10T22:04:20.954Z,14.16
2023-05-10T22:07:23.517Z,14.17
2023-05-10T22:10:26.359Z,14.20
2023-05-10T22:13:28.957Z,14.28
2023-05-10T22:16:31.828Z,14.29
2023-05-10T22:19:34.435Z,14.32
2023-05-10T22:22:37.484Z,14.30
2023-05-10T22:25:39.993Z,14.27
2023-05-10T22:28:42.852Z,14.36
2023-05-10T22:31:45.825Z,14.38
2023-05-10T22:34:48.676Z,14.34
2023-05-10T22:37:51.446Z,14.34
2023-05-10T22:40:54.248Z,14.23
2023-05-10T22:43:56.827Z,14.17
2023-05-10T22:46:59.917Z,14.16
2023-05-10T22:50:05.402Z,14.13
2023-05-10T22:53:08.477Z,14.12
2023-05-10T22:56:11.108Z,14.03
2023-05-10T22:59:13.966Z,13.90
2023-05-10T23:02:16.955Z,13.77
2023-05-10T23:05:19.948Z,13.68
2023-05-10T23:08:22.732Z,13.54
2023-05-10T23:11:25.635Z,13.38
2023-05-10T23:14:28.261Z,13.28
2023-05-10T23:17:31.061Z,13.19
2023-05-10T23:20:33.645Z,13.06
2023-05-10T23:23:37.373Z,13.01
2023-05-10T23:26:40.036Z,12.97
2023-05-10T23:29:45.049Z,12.97
2023-05-10T23:32:47.565Z,13.12
2023-05-10T23:35:50.747Z,13.14
2023-05-10T23:38:53.319Z,13.20
2023-05-10T23:41:56.241Z,13.21
2023-05-10T23:44:58.815Z,13.21
2023-05-10T23:48:01.618Z,13.19
2023-05-10T23:51:04.348Z,13.19
2023-05-10T23:54:07.349Z,13.19
2023-05-10T23:57:09.924Z,13.22
